Orbital elements of SL-14 DEB
| Launched | 27 September 1989 |
| Flight ended | – |
| Launch site | Plesetsk Missile and Space Complex, Russia |
| Owner | Commonwealth of Independent States (former USSR) |
| NORAD ID | 20129 |
| Date fetched |
Epoch osculation |
Inc. [°] |
Ecc. | RA asc node [hr] |
Arg Peri. [°] |
Mean anom [°] |
Mean motion [rev/day] |
Abs. mag |
| Date fetched |
Epoch osculation |
Inc. [°] |
Ecc. | RA asc node [hr] |
Arg Peri. [°] |
Mean anom [°] |
Mean motion [rev/day] |
Abs. mag |
| 2026 May 04 17:57 | 2026 Apr 29 21:31:58 | 82.4956 | 0.09494 | 6.4848 | 120.2727 | 279.1746 | 12.97494 | – |
| 2026 May 03 17:57 | 2026 Apr 29 21:31:58 | 82.4956 | 0.09494 | 6.4848 | 120.2727 | 279.1746 | 12.97494 | – |
| 2026 May 02 17:57 | 2026 Apr 29 21:31:58 | 82.4956 | 0.09494 | 6.4848 | 120.2727 | 279.1746 | 12.97494 | – |
| 2026 May 01 17:56 | 2026 Apr 29 21:31:58 | 82.4956 | 0.09494 | 6.4848 | 120.2727 | 279.1746 | 12.97494 | – |
| 2026 Apr 30 17:56 | 2026 Apr 29 21:31:58 | 82.4956 | 0.09494 | 6.4848 | 120.2727 | 279.1746 | 12.97494 | – |
| 2026 Apr 29 17:57 | 2026 Apr 24 08:43:11 | 82.4951 | 0.09491 | 6.7430 | 133.8523 | 279.1746 | 12.97494 | – |
| 2026 Apr 28 17:56 | 2026 Apr 24 08:43:11 | 82.4951 | 0.09491 | 6.7430 | 133.8523 | 279.1746 | 12.97494 | – |
| 2026 Apr 27 17:58 | 2026 Apr 24 08:43:11 | 82.4951 | 0.09491 | 6.7430 | 133.8523 | 279.1746 | 12.97494 | – |
| 2026 Apr 26 17:58 | 2026 Apr 24 08:43:11 | 82.4951 | 0.09491 | 6.7430 | 133.8523 | 279.1746 | 12.97494 | – |
| 2026 Apr 25 17:58 | 2026 Apr 24 08:43:11 | 82.4951 | 0.09491 | 6.7430 | 133.8523 | 279.1746 | 12.97494 | – |
| 2026 Apr 24 17:59 | 2026 Apr 24 08:43:11 | 82.4951 | 0.09491 | 6.7430 | 133.8523 | 279.1746 | 12.97494 | – |
| 2026 Apr 23 17:57 | 2026 Apr 19 06:06:55 | 82.4952 | 0.09490 | 6.9815 | 146.3851 | 279.1746 | 12.97494 | – |
| 2026 Apr 22 17:57 | 2026 Apr 19 06:06:55 | 82.4952 | 0.09490 | 6.9815 | 146.3851 | 279.1746 | 12.97494 | – |
| 2026 Apr 21 17:57 | 2026 Apr 19 06:06:55 | 82.4952 | 0.09490 | 6.9815 | 146.3851 | 279.1746 | 12.97494 | – |
| 2026 Apr 20 17:57 | 2026 Apr 19 06:06:55 | 82.4952 | 0.09490 | 6.9815 | 146.3851 | 279.1746 | 12.97494 | – |
| 2026 Apr 19 17:58 | 2026 Apr 19 06:06:55 | 82.4952 | 0.09490 | 6.9815 | 146.3851 | 279.1746 | 12.97494 | – |
| 2026 Apr 18 17:56 | 2026 Apr 13 07:30:46 | 82.4947 | 0.09488 | 7.2588 | 160.9719 | 279.1746 | 12.97494 | – |
| 2026 Apr 16 17:57 | 2026 Apr 13 07:30:46 | 82.4947 | 0.09488 | 7.2588 | 160.9719 | 279.1746 | 12.97494 | – |
| 2026 Apr 14 17:57 | 2026 Apr 13 07:30:46 | 82.4947 | 0.09488 | 7.2588 | 160.9719 | 279.1746 | 12.97494 | – |
| 2026 Apr 13 17:57 | 2026 Apr 13 07:30:46 | 82.4947 | 0.09488 | 7.2588 | 160.9719 | 279.1746 | 12.97494 | – |
| 2026 Apr 12 17:57 | 2026 Apr 08 11:37:29 | 82.4953 | 0.09487 | 7.4842 | 172.8239 | 279.1746 | 12.97494 | – |
| 2026 Apr 11 17:57 | 2026 Apr 08 11:37:29 | 82.4953 | 0.09487 | 7.4842 | 172.8239 | 279.1746 | 12.97494 | – |
| 2026 Apr 10 17:58 | 2026 Apr 08 11:37:29 | 82.4953 | 0.09487 | 7.4842 | 172.8239 | 279.1746 | 12.97494 | – |
| 2026 Apr 09 18:01 | 2026 Apr 08 11:37:29 | 82.4953 | 0.09487 | 7.4842 | 172.8239 | 279.1746 | 12.97494 | – |
| 2026 Apr 08 17:57 | 2026 Apr 08 11:37:29 | 82.4953 | 0.09487 | 7.4842 | 172.8239 | 279.1746 | 12.97494 | – |
| 2026 Apr 07 17:57 | 2026 Apr 02 01:22:30 | 82.4951 | 0.09486 | 7.7842 | 188.5937 | 279.1746 | 12.97494 | – |